createdAt,value
2018-06-02T02:46:25.296Z,14.80
2018-06-02T02:48:55.531Z,14.80
2018-06-02T02:51:25.070Z,14.70
2018-06-02T02:53:55.279Z,14.60
2018-06-02T02:56:25.574Z,14.60
2018-06-02T02:58:55.739Z,14.60
2018-06-02T03:01:26.218Z,10.50
2018-06-02T03:03:56.483Z,14.70
2018-06-02T03:06:26.660Z,14.60
2018-06-02T03:08:56.835Z,14.50
2018-06-02T03:11:27.110Z,14.50
2018-06-02T03:13:58.056Z,14.60
2018-06-02T03:44:01.947Z,14.70
2018-06-02T03:46:32.111Z,14.70
2018-06-02T03:49:02.338Z,14.70
2018-06-02T03:51:32.503Z,14.70
2018-06-02T03:54:02.687Z,14.70
2018-06-02T03:56:32.994Z,14.70
2018-06-02T03:59:03.278Z,14.80
2018-06-02T04:01:33.559Z,14.80
2018-06-02T04:04:03.791Z,14.80
2018-06-02T04:06:34.103Z,14.80
2018-06-02T04:09:04.937Z,14.80
2018-06-02T04:11:35.178Z,14.70
2018-06-02T04:14:05.451Z,14.80
2018-06-02T04:16:35.707Z,14.90
2018-06-02T04:19:06.103Z,15.00
2018-06-02T04:21:36.403Z,18.60
2018-06-02T04:24:06.683Z,14.90
2018-06-02T04:26:36.868Z,15.60
2018-06-02T04:29:07.232Z,15.00
2018-06-02T04:31:37.514Z,15.80
2018-06-02T04:34:07.775Z,15.40
2018-06-02T04:36:37.962Z,15.50
2018-06-02T04:39:09.335Z,15.70
2018-06-02T04:41:39.696Z,15.80
2018-06-02T04:44:09.898Z,16.00
2018-06-02T04:54:12.794Z,16.30
2018-06-02T04:59:14.003Z,16.60
2018-06-02T05:01:44.162Z,16.70
2018-06-02T05:04:15.318Z,16.90
2018-06-02T05:06:45.525Z,16.90
2018-06-02T05:09:15.755Z,16.90
2018-06-02T05:11:46.050Z,16.90
2018-06-02T05:14:16.751Z,17.00
2018-06-02T05:16:47.195Z,17.00
2018-06-02T05:19:17.800Z,17.30
2018-06-02T05:21:48.798Z,17.50
2018-06-02T05:24:19.092Z,17.80
2018-06-02T05:54:23.726Z,21.00
2018-06-02T05:56:54.187Z,20.50
2018-06-02T05:59:24.511Z,20.10
2018-06-02T06:01:54.783Z,19.90
2018-06-02T06:04:25.107Z,19.80
2018-06-02T06:06:55.402Z,19.60
2018-06-02T06:09:25.613Z,19.40
2018-06-02T06:11:55.979Z,19.40
2018-06-02T06:14:26.252Z,19.40
2018-06-02T06:16:56.415Z,23.30
2018-06-02T06:19:26.710Z,19.80
2018-06-02T06:21:57.390Z,20.80
2018-06-02T06:24:27.873Z,23.70
2018-06-02T06:34:29.726Z,31.60
2018-06-02T06:36:59.917Z,32.20
2018-06-02T06:39:30.291Z,32.70
2018-06-02T06:42:00.624Z,33.70
2018-06-02T06:44:31.304Z,34.80
2018-06-02T06:47:01.933Z,35.50
2018-06-02T06:49:32.142Z,36.20
2018-06-02T06:52:02.959Z,36.70
2018-06-02T06:54:33.201Z,37.10
2018-06-02T06:57:03.466Z,37.00
2018-06-02T06:59:33.592Z,32.60
2018-06-02T07:02:03.931Z,37.40
2018-06-02T07:04:34.049Z,37.70
2018-06-02T07:07:05.045Z,37.70
2018-06-02T07:09:35.262Z,37.50
2018-06-02T07:12:05.556Z,37.60
2018-06-02T07:14:35.749Z,38.00
2018-06-02T07:17:05.559Z,38.40
2018-06-02T07:19:35.853Z,38.80
2018-06-02T07:22:06.099Z,38.80
2018-06-02T07:24:36.323Z,37.90
2018-06-02T07:27:06.527Z,37.70
2018-06-02T07:29:36.869Z,34.80
2018-06-02T07:39:40.336Z,30.50
2018-06-02T07:42:10.430Z,34.20
2018-06-02T07:52:11.752Z,34.50
2018-06-02T07:54:42.071Z,35.50
2018-06-02T07:57:12.340Z,34.50
2018-06-02T08:27:38.633Z,30.50
2018-06-02T08:42:45.796Z,28.40
2018-06-02T08:45:19.554Z,27.30
2018-06-02T08:50:28.542Z,26.40
2018-06-02T08:53:03.851Z,26.50
2018-06-02T08:55:34.107Z,26.30
2018-06-02T08:58:03.914Z,26.00
2018-06-02T09:08:05.239Z,33.30
2018-06-02T09:10:35.334Z,35.00
2018-06-02T09:13:16.439Z,35.00
2018-06-02T09:16:00.183Z,34.60
2018-06-02T09:18:30.392Z,36.10
2018-06-02T09:21:00.663Z,36.90
2018-06-02T09:23:30.927Z,37.20
2018-06-02T09:26:01.058Z,37.50
2018-06-02T09:28:31.265Z,37.60
2018-06-02T09:31:01.482Z,38.00
2018-06-02T09:33:34.287Z,33.90
2018-06-02T09:36:04.498Z,37.90
2018-06-02T09:38:34.708Z,38.00
2018-06-02T09:41:05.855Z,33.20
2018-06-02T09:43:36.045Z,36.90
2018-06-02T09:46:06.303Z,36.70
2018-06-02T09:48:36.515Z,35.40
2018-06-02T09:51:10.239Z,33.60
2018-06-02T09:53:40.354Z,32.20
2018-06-02T10:03:53.385Z,29.80
2018-06-02T10:06:23.848Z,31.00
2018-06-02T10:08:59.804Z,32.00
2018-06-02T10:11:30.450Z,31.10
2018-06-02T10:14:19.939Z,30.20
2018-06-02T10:16:56.896Z,29.80
2018-06-02T10:19:28.353Z,29.70
2018-06-02T10:21:59.654Z,30.10
2018-06-02T10:24:31.959Z,31.30
2018-06-02T10:27:02.255Z,31.50
2018-06-02T10:29:33.819Z,32.20
2018-06-02T10:32:04.791Z,33.80
2018-06-02T10:34:35.103Z,34.90
2018-06-02T10:37:05.425Z,34.10
2018-06-02T10:39:35.723Z,33.10
2018-06-02T10:42:05.954Z,31.90
2018-06-02T10:44:36.189Z,31.30
2018-06-02T10:47:06.534Z,31.00
2018-06-02T10:49:37.894Z,31.10
2018-06-02T10:52:13.430Z,30.70
2018-06-02T10:57:32.147Z,30.90
2018-06-02T11:07:57.244Z,32.60
2018-06-02T11:10:30.731Z,33.00
2018-06-02T11:13:00.943Z,33.00
2018-06-02T11:15:31.214Z,34.10
2018-06-02T11:18:23.851Z,34.20
2018-06-02T11:20:54.080Z,34.40
2018-06-02T11:23:24.984Z,34.30
2018-06-02T11:25:57.183Z,35.30
2018-06-02T11:28:27.467Z,32.40
2018-06-02T11:43:42.623Z,31.50
2018-06-02T11:46:12.936Z,31.10
2018-06-02T12:04:13.323Z,34.10
2018-06-02T12:07:06.070Z,33.70
2018-06-02T12:19:55.731Z,31.30
2018-06-02T12:40:17.594Z,31.90
2018-06-02T12:42:51.648Z,31.60
2018-06-02T12:45:22.631Z,31.30
2018-06-02T12:48:04.925Z,30.70
2018-06-02T12:50:35.103Z,30.10
2018-06-02T12:53:06.178Z,29.60
2018-06-02T13:00:39.134Z,28.90
2018-06-02T13:05:41.567Z,29.80
2018-06-02T13:08:20.431Z,30.30
2018-06-02T13:10:50.651Z,30.10
2018-06-02T13:13:26.315Z,29.60
2018-06-02T13:49:17.920Z,27.50
2018-06-02T13:51:53.625Z,27.50
2018-06-02T13:54:30.489Z,27.40
2018-06-02T13:57:02.567Z,27.20
2018-06-02T13:59:32.827Z,27.10
2018-06-02T14:02:03.209Z,27.20
2018-06-02T14:04:38.527Z,27.20
2018-06-02T14:07:08.889Z,27.20
2018-06-02T14:09:44.125Z,27.00
2018-06-02T14:12:16.277Z,27.00
2018-06-02T14:14:46.627Z,26.90
2018-06-02T14:17:16.915Z,26.80
2018-06-02T14:22:34.348Z,26.60
2018-06-02T14:25:09.222Z,26.90
2018-06-02T14:27:39.540Z,26.80
2018-06-02T14:30:09.864Z,26.80
2018-06-02T14:32:48.276Z,26.90
2018-06-02T14:35:26.488Z,26.90
2018-06-02T14:37:56.819Z,26.90
2018-06-02T14:40:27.150Z,27.00
2018-06-02T14:42:57.578Z,27.10
2018-06-02T14:45:42.735Z,27.00
2018-06-02T14:48:13.953Z,26.80
2018-06-02T14:50:44.214Z,27.00
2018-06-02T14:53:14.307Z,26.90
2018-06-02T14:55:52.239Z,26.80
2018-06-02T14:58:23.641Z,26.90
2018-06-02T15:00:57.696Z,27.10
2018-06-02T15:03:28.162Z,27.10
2018-06-02T15:05:58.573Z,27.20
2018-06-02T15:08:32.150Z,27.20
2018-06-02T15:11:23.443Z,27.20
2018-06-02T15:13:53.615Z,27.40
2018-06-02T15:16:23.867Z,27.70
2018-06-02T15:18:54.060Z,27.90
2018-06-02T15:21:28.024Z,28.00
2018-06-02T15:23:59.839Z,28.20
2018-06-02T15:26:30.156Z,28.30
2018-06-02T15:29:00.524Z,28.30
2018-06-02T15:31:32.005Z,28.20
2018-06-02T15:34:14.030Z,28.10
2018-06-02T15:39:44.382Z,28.00
2018-06-02T15:42:18.975Z,27.60
2018-06-02T15:44:54.159Z,27.40
2018-06-02T16:00:03.212Z,27.30
2018-06-02T16:15:17.241Z,27.10
2018-06-02T16:18:11.346Z,26.90
2018-06-02T16:21:00.201Z,26.90
2018-06-02T16:23:31.232Z,26.90
2018-06-02T16:26:01.401Z,26.90
2018-06-02T16:28:31.623Z,26.90
2018-06-02T16:31:01.794Z,26.80
2018-06-02T16:33:32.060Z,26.80
2018-06-02T16:36:02.337Z,26.80
2018-06-02T16:38:32.510Z,26.90
2018-06-02T16:41:20.812Z,26.90
2018-06-02T16:43:50.981Z,27.00
2018-06-02T16:46:21.184Z,26.90
2018-06-02T16:48:52.386Z,26.90
2018-06-02T16:51:22.613Z,22.50
2018-06-02T16:53:55.963Z,26.70
2018-06-02T16:56:26.488Z,26.60
2018-06-02T16:59:04.447Z,26.50
2018-06-02T17:01:34.854Z,26.40
2018-06-02T17:04:05.115Z,26.40
2018-06-02T17:06:35.503Z,26.30
2018-06-02T17:09:12.032Z,26.20
2018-06-02T17:11:56.044Z,26.30
2018-06-02T17:14:28.016Z,26.20
2018-06-02T17:27:01.768Z,25.90
2018-06-02T17:29:33.241Z,25.80
2018-06-02T17:32:03.505Z,25.70
2018-06-02T17:34:50.384Z,25.60
2018-06-02T17:37:21.562Z,25.50
2018-06-02T17:39:52.125Z,25.40
2018-06-02T17:42:36.305Z,21.20
2018-06-02T17:45:06.599Z,25.10
2018-06-02T17:47:36.757Z,25.20
2018-06-02T17:50:06.870Z,25.20
2018-06-02T17:52:36.993Z,20.60
2018-06-02T17:57:44.727Z,25.10
2018-06-02T18:02:52.132Z,25.00
2018-06-02T18:10:24.357Z,24.80
2018-06-02T18:15:25.885Z,24.70
2018-06-02T18:17:56.000Z,24.60
2018-06-02T18:20:26.627Z,24.40
2018-06-02T18:23:00.697Z,24.40
2018-06-02T18:25:31.637Z,24.30
2018-06-02T18:35:38.308Z,23.70
2018-06-02T21:01:25.528Z,19.90
2018-06-02T21:03:58.000Z,19.90
2018-06-02T21:06:34.864Z,20.00
2018-06-02T21:09:07.460Z,20.00
2018-06-02T21:11:39.209Z,20.00
2018-06-02T21:14:09.525Z,20.00
2018-06-02T21:16:40.425Z,19.90
2018-06-02T21:19:11.293Z,19.80
2018-06-02T21:21:43.485Z,19.90
2018-06-02T21:24:15.852Z,20.00
2018-06-02T21:26:45.992Z,20.00
2018-06-02T21:29:17.215Z,19.90
2018-06-02T21:31:48.894Z,19.90
2018-06-02T21:34:19.090Z,19.80
2018-06-02T21:36:49.333Z,19.80
2018-06-02T21:39:19.494Z,19.60
2018-06-02T21:45:24.455Z,19.40
2018-06-02T21:47:54.527Z,19.30
